createdAt,value
2023-04-10T00:00:31.470Z,0.50
2023-04-10T00:03:01.418Z,0.40
2023-04-10T00:05:29.520Z,0.40
2023-04-10T00:07:57.515Z,0.40
2023-04-10T00:10:26.469Z,0.40
2023-04-10T00:12:56.560Z,0.40
2023-04-10T00:15:24.832Z,0.60
2023-04-10T00:17:55.284Z,0.30
2023-04-10T00:20:26.219Z,0.47
2023-04-10T00:22:54.533Z,0.50
2023-04-10T00:25:23.140Z,0.40
2023-04-10T00:27:51.441Z,0.40
2023-04-10T00:30:21.035Z,0.50
2023-04-10T00:32:49.098Z,0.40
2023-04-10T00:35:17.220Z,0.47
2023-04-10T00:37:45.238Z,0.50
2023-04-10T00:40:13.551Z,0.30
2023-04-10T00:42:41.683Z,0.30
2023-04-10T00:45:10.584Z,0.40
2023-04-10T00:47:40.925Z,0.40
2023-04-10T00:50:09.476Z,0.33
2023-04-10T00:52:37.651Z,0.40
2023-04-10T00:55:07.079Z,0.50
2023-04-10T00:57:35.452Z,0.53
2023-04-10T01:00:04.721Z,0.53
2023-04-10T01:02:33.232Z,0.50
2023-04-10T01:05:02.670Z,0.50
2023-04-10T01:07:44.520Z,0.47
2023-04-10T01:10:18.324Z,0.40
2023-04-10T01:12:57.164Z,0.60
2023-04-10T01:15:28.120Z,0.40
2023-04-10T01:18:00.119Z,0.40
2023-04-10T01:20:32.533Z,0.43
2023-04-10T01:23:28.011Z,0.50
2023-04-10T01:26:00.418Z,0.40
2023-04-10T01:28:53.186Z,0.50
2023-04-10T01:31:28.171Z,0.40
2023-04-10T01:34:01.190Z,0.50
2023-04-10T01:36:32.912Z,0.40
2023-04-10T01:39:02.389Z,0.53
2023-04-10T01:41:31.744Z,0.47
2023-04-10T01:44:03.917Z,0.37
2023-04-10T01:46:33.765Z,0.33
2023-04-10T01:49:03.731Z,0.67
2023-04-10T01:51:33.817Z,0.40
2023-04-10T01:54:04.607Z,0.60
2023-04-10T01:56:35.110Z,0.40
2023-04-10T01:59:05.647Z,0.47
2023-04-10T02:01:33.738Z,0.50
2023-04-10T02:04:03.149Z,0.60
2023-04-10T02:06:41.732Z,0.40
2023-04-10T02:09:17.239Z,0.57
2023-04-10T02:11:52.934Z,0.40
2023-04-10T02:14:23.746Z,0.37
2023-04-10T02:16:56.164Z,0.30
2023-04-10T02:19:26.140Z,0.50
2023-04-10T02:21:54.942Z,0.50
2023-04-10T02:24:23.306Z,0.50
2023-04-10T02:26:52.550Z,0.40
2023-04-10T02:29:22.112Z,0.30
2023-04-10T02:31:51.161Z,0.60
2023-04-10T02:34:19.182Z,0.50
2023-04-10T02:36:47.220Z,0.40
2023-04-10T02:39:15.443Z,0.60
2023-04-10T02:41:43.461Z,0.40
2023-04-10T02:44:11.528Z,0.63
2023-04-10T02:46:42.045Z,0.50
2023-04-10T02:49:10.559Z,0.37
2023-04-10T02:51:38.642Z,0.50
2023-04-10T02:54:06.729Z,0.30
2023-04-10T02:56:35.630Z,0.50
2023-04-10T02:59:03.782Z,0.43
2023-04-10T03:01:32.015Z,0.30
2023-04-10T03:04:03.006Z,0.43
2023-04-10T03:06:31.296Z,0.60
2023-04-10T03:08:59.488Z,0.47
2023-04-10T03:11:27.594Z,0.50
2023-04-10T03:13:55.989Z,0.77
2023-04-10T03:16:24.114Z,0.50
2023-04-10T03:18:52.324Z,0.47
2023-04-10T03:21:21.929Z,0.50
2023-04-10T03:23:49.908Z,0.40
2023-04-10T03:26:17.971Z,0.57
2023-04-10T03:28:45.962Z,0.43
2023-04-10T03:31:14.002Z,0.50
2023-04-10T03:33:42.153Z,0.40
2023-04-10T03:36:10.833Z,0.70
2023-04-10T03:38:40.594Z,0.50
2023-04-10T03:41:08.699Z,0.50
2023-04-10T03:43:36.686Z,0.60
2023-04-10T03:46:04.692Z,0.40
2023-04-10T03:48:33.490Z,0.40
2023-04-10T03:51:01.465Z,0.40
2023-04-10T03:53:29.460Z,0.50
2023-04-10T03:55:58.866Z,0.40
2023-04-10T03:58:26.836Z,0.40
2023-04-10T04:00:54.807Z,0.50
2023-04-10T04:03:23.412Z,0.50
2023-04-10T04:05:52.158Z,0.60
2023-04-10T04:08:20.239Z,0.60
2023-04-10T04:10:48.297Z,0.50
2023-04-10T04:13:17.868Z,0.30
2023-04-10T04:15:47.810Z,0.53
2023-04-10T04:18:15.845Z,0.60
2023-04-10T04:20:43.887Z,0.60
2023-04-10T04:23:12.026Z,0.80
2023-04-10T04:25:40.036Z,0.47
2023-04-10T04:28:08.117Z,0.50
2023-04-10T04:30:37.582Z,0.50
2023-04-10T04:33:05.779Z,0.40
2023-04-10T04:35:33.923Z,0.60
2023-04-10T04:38:02.377Z,0.60
2023-04-10T04:40:30.431Z,0.80
2023-04-10T04:42:58.412Z,0.50
2023-04-10T04:45:26.456Z,0.50
2023-04-10T04:47:55.915Z,0.50
2023-04-10T04:50:23.957Z,0.60
2023-04-10T04:52:52.017Z,0.80
2023-04-10T04:55:20.231Z,0.50
2023-04-10T04:57:48.221Z,0.60
2023-04-10T05:00:16.597Z,0.43
2023-04-10T05:02:44.658Z,0.40
2023-04-10T05:05:14.214Z,0.40
2023-04-10T05:07:42.165Z,0.40
2023-04-10T05:10:10.609Z,0.50
2023-04-10T05:12:38.570Z,0.60
2023-04-10T05:15:07.995Z,0.60
2023-04-10T05:17:36.018Z,0.50
2023-04-10T05:20:04.866Z,0.60
2023-04-10T05:22:34.259Z,0.30
2023-04-10T05:25:02.268Z,0.40
2023-04-10T05:27:30.241Z,0.33
2023-04-10T05:29:58.218Z,0.40
2023-04-10T05:32:26.242Z,0.40
2023-04-10T05:34:55.298Z,0.40
2023-04-10T05:37:23.317Z,0.40
2023-04-10T05:39:52.908Z,0.40
2023-04-10T05:42:22.688Z,0.30
2023-04-10T05:44:52.807Z,0.40
2023-04-10T05:47:20.919Z,0.50
2023-04-10T05:49:48.932Z,0.47
2023-04-10T05:52:16.904Z,0.30
2023-04-10T05:54:44.883Z,0.40
2023-04-10T05:57:14.237Z,0.50
2023-04-10T05:59:42.197Z,0.40
2023-04-10T06:02:10.589Z,0.30
2023-04-10T06:04:38.893Z,0.60
2023-04-10T06:07:07.097Z,0.40
2023-04-10T06:09:35.061Z,0.50
2023-04-10T06:12:03.029Z,0.30
2023-04-10T06:14:32.310Z,0.30
2023-04-10T06:17:00.382Z,0.40
2023-04-10T06:19:28.456Z,0.30
2023-04-10T06:21:56.404Z,0.33
2023-04-10T06:24:24.352Z,0.40
2023-04-10T06:26:52.477Z,0.40
2023-04-10T06:29:20.476Z,0.50
2023-04-10T06:31:50.013Z,0.33
2023-04-10T06:34:18.034Z,0.30
2023-04-10T06:36:46.013Z,0.43
2023-04-10T06:39:14.086Z,0.30
2023-04-10T06:41:42.171Z,0.30
2023-04-10T06:44:10.327Z,0.37
2023-04-10T06:46:38.433Z,0.40
2023-04-10T06:49:07.930Z,0.30
2023-04-10T06:51:36.011Z,0.30
2023-04-10T06:54:04.272Z,0.30
2023-04-10T06:56:32.612Z,0.30
2023-04-10T06:59:00.890Z,0.30
2023-04-10T07:01:29.418Z,0.30
2023-04-10T07:03:57.551Z,0.40
2023-04-10T07:06:27.532Z,0.40
2023-04-10T07:08:56.158Z,0.30
2023-04-10T07:11:24.326Z,0.40
2023-04-10T07:13:53.945Z,0.30
2023-04-10T07:16:22.012Z,0.30
2023-04-10T07:18:50.560Z,0.30
2023-04-10T07:21:18.547Z,0.40
2023-04-10T07:23:48.059Z,0.40
2023-04-10T07:26:16.460Z,0.30
2023-04-10T07:28:44.483Z,0.30
2023-04-10T07:31:13.827Z,0.30
2023-04-10T07:33:41.943Z,0.40
2023-04-10T07:36:10.668Z,0.30
2023-04-10T07:38:38.791Z,0.30
2023-04-10T07:41:09.786Z,0.20
2023-04-10T07:43:37.909Z,0.23
2023-04-10T07:46:06.940Z,0.20
2023-04-10T07:48:35.261Z,0.30
2023-04-10T07:51:03.763Z,0.20
2023-04-10T07:53:32.054Z,0.30
2023-04-10T07:56:00.282Z,0.30
2023-04-10T07:58:29.762Z,0.30
2023-04-10T08:00:58.039Z,0.20
2023-04-10T08:03:27.992Z,0.30
2023-04-10T08:05:56.473Z,0.30
2023-04-10T08:08:24.495Z,0.30
2023-04-10T08:10:52.582Z,0.20
2023-04-10T08:13:20.565Z,0.30
2023-04-10T08:15:50.181Z,0.30
2023-04-10T08:18:18.188Z,0.30
2023-04-10T08:20:46.128Z,0.40
2023-04-10T08:23:20.527Z,0.20
2023-04-10T08:25:49.159Z,0.30
2023-04-10T08:28:17.149Z,0.40
2023-04-10T08:30:45.299Z,0.30
2023-04-10T08:33:14.824Z,0.20
2023-04-10T08:35:43.200Z,0.20
2023-04-10T08:38:14.061Z,0.30
2023-04-10T08:40:44.468Z,0.27
2023-04-10T08:43:12.764Z,0.30
2023-04-10T08:45:42.489Z,0.30
2023-04-10T08:48:12.273Z,0.30
2023-04-10T08:50:44.159Z,0.20
2023-04-10T08:53:15.366Z,0.10
2023-04-10T08:55:45.213Z,0.20
2023-04-10T08:58:14.368Z,0.30
2023-04-10T09:00:42.478Z,0.20
2023-04-10T09:03:14.355Z,0.20
2023-04-10T09:05:44.361Z,0.30
2023-04-10T09:08:13.615Z,0.20
2023-04-10T09:10:41.770Z,0.23
2023-04-10T09:13:09.954Z,0.30
2023-04-10T09:15:59.809Z,0.20
2023-04-10T09:18:43.356Z,0.20
2023-04-10T09:21:14.093Z,0.20
2023-04-10T09:23:44.471Z,0.20
2023-04-10T09:26:28.301Z,0.20
2023-04-10T09:29:01.457Z,0.20
2023-04-10T09:31:31.716Z,0.20
2023-04-10T09:34:10.638Z,0.20
2023-04-10T09:36:41.426Z,0.20
2023-04-10T09:39:11.111Z,0.27
2023-04-10T09:42:00.098Z,0.20
2023-04-10T09:44:32.711Z,0.20
2023-04-10T09:47:16.107Z,0.20
2023-04-10T09:49:48.214Z,0.20
2023-04-10T09:52:22.162Z,0.20
2023-04-10T09:54:50.276Z,0.20
2023-04-10T09:57:20.057Z,0.30
2023-04-10T09:59:51.456Z,0.20
2023-04-10T10:02:20.238Z,0.20
2023-04-10T10:04:49.968Z,0.30
2023-04-10T10:07:21.188Z,0.20
2023-04-10T10:09:52.050Z,0.20
2023-04-10T10:12:25.175Z,0.20
2023-04-10T10:15:01.348Z,0.20
2023-04-10T10:17:36.449Z,0.20
2023-04-10T10:20:10.158Z,0.20
2023-04-10T10:22:39.979Z,0.20
2023-04-10T10:25:09.936Z,0.20
2023-04-10T10:27:39.313Z,0.27
2023-04-10T10:30:28.099Z,0.20
2023-04-10T10:32:59.446Z,0.20
2023-04-10T10:35:29.862Z,0.20
2023-04-10T10:38:00.611Z,0.20
2023-04-10T10:40:33.533Z,0.20
2023-04-10T10:43:09.797Z,0.20
2023-04-10T10:45:42.264Z,0.20
2023-04-10T10:48:11.256Z,0.20
2023-04-10T10:50:58.835Z,0.20
2023-04-10T10:53:43.801Z,0.13
2023-04-10T10:56:37.155Z,0.20
2023-04-10T10:59:05.394Z,0.20
2023-04-10T11:01:33.643Z,0.20
2023-04-10T11:04:02.291Z,0.20
2023-04-10T11:06:49.674Z,0.20
2023-04-10T11:09:51.094Z,0.20
2023-04-10T11:12:21.341Z,0.20
2023-04-10T11:14:59.277Z,0.20
2023-04-10T11:17:53.993Z,0.20
2023-04-10T11:20:27.153Z,0.20
2023-04-10T11:23:12.598Z,0.20
2023-04-10T11:25:59.995Z,0.20
2023-04-10T11:28:38.332Z,0.20
2023-04-10T11:31:19.866Z,0.20
2023-04-10T11:33:49.428Z,0.20
2023-04-10T11:36:18.604Z,0.20
2023-04-10T11:39:00.467Z,0.20
2023-04-10T11:41:32.059Z,0.20
2023-04-10T11:44:00.685Z,0.20
2023-04-10T11:46:29.366Z,0.20
2023-04-10T11:48:59.832Z,0.20
2023-04-10T11:51:28.473Z,0.20
2023-04-10T11:54:09.593Z,0.20
2023-04-10T11:56:40.417Z,0.20
2023-04-10T11:59:10.938Z,0.20
2023-04-10T12:01:41.905Z,0.20
2023-04-10T12:04:18.213Z,0.20
2023-04-10T12:06:47.162Z,0.23
2023-04-10T12:09:17.322Z,0.20
2023-04-10T12:11:53.040Z,0.20
2023-04-10T12:14:22.088Z,0.20
2023-04-10T12:16:51.415Z,0.20
2023-04-10T12:19:20.688Z,0.20
2023-04-10T12:21:51.943Z,0.20
2023-04-10T12:24:44.540Z,0.20
2023-04-10T12:27:18.924Z,0.20
2023-04-10T12:29:47.302Z,0.20
2023-04-10T12:32:16.180Z,0.20
2023-04-10T12:34:50.516Z,0.20
2023-04-10T12:37:18.779Z,0.20
2023-04-10T12:39:46.881Z,0.20
2023-04-10T12:42:16.570Z,0.20
2023-04-10T12:44:57.403Z,0.20
2023-04-10T12:47:26.801Z,0.13
2023-04-10T12:50:16.321Z,0.20
2023-04-10T12:52:47.244Z,0.20
2023-04-10T12:55:16.836Z,0.10
2023-04-10T12:57:47.604Z,0.20
2023-04-10T13:00:19.563Z,0.20
2023-04-10T13:02:49.097Z,0.20
2023-04-10T13:05:17.710Z,0.20
2023-04-10T13:07:45.835Z,0.23
2023-04-10T13:10:13.907Z,0.20
2023-04-10T13:12:43.636Z,0.20
2023-04-10T13:15:11.894Z,0.20
2023-04-10T13:17:41.926Z,0.20
2023-04-10T13:20:11.350Z,0.20
2023-04-10T13:22:39.353Z,0.20
2023-04-10T13:25:07.982Z,0.20
2023-04-10T13:27:36.295Z,0.20
2023-04-10T13:30:04.906Z,0.20
2023-04-10T13:32:33.133Z,0.10
2023-04-10T13:35:02.708Z,0.10
2023-04-10T13:37:30.926Z,0.20
2023-04-10T13:39:59.147Z,0.10
2023-04-10T13:42:27.364Z,0.10
2023-04-10T13:44:55.693Z,0.10
2023-04-10T13:47:24.955Z,0.20
2023-04-10T13:49:53.276Z,0.20
2023-04-10T13:52:23.323Z,0.10
2023-04-10T13:54:51.500Z,0.10
2023-04-10T13:57:19.545Z,0.10
2023-04-10T13:59:47.802Z,0.20
2023-04-10T14:02:16.457Z,0.10
2023-04-10T14:04:46.187Z,0.20
2023-04-10T14:07:14.267Z,0.20
2023-04-10T14:09:43.697Z,0.20
2023-04-10T14:12:11.944Z,0.20
2023-04-10T14:14:40.199Z,0.20
2023-04-10T14:17:08.272Z,0.20
2023-04-10T14:19:36.749Z,0.20
2023-04-10T14:22:04.849Z,0.20
2023-04-10T14:24:32.934Z,0.10
2023-04-10T14:27:02.561Z,0.20
2023-04-10T14:29:37.441Z,0.20
2023-04-10T14:32:08.950Z,0.20
2023-04-10T14:34:37.209Z,0.10
2023-04-10T14:37:05.540Z,0.20
2023-04-10T14:39:45.269Z,0.10
2023-04-10T14:42:14.918Z,0.10
2023-04-10T14:44:44.232Z,0.10
2023-04-10T14:47:14.512Z,0.20
2023-04-10T14:49:42.782Z,0.10
2023-04-10T14:52:11.090Z,0.20
2023-04-10T14:54:39.578Z,0.10
2023-04-10T14:57:15.960Z,0.10
2023-04-10T14:59:47.370Z,0.10
2023-04-10T15:02:16.836Z,0.20
2023-04-10T15:04:45.024Z,0.20
2023-04-10T15:07:13.967Z,0.10
2023-04-10T15:09:43.855Z,0.20
2023-04-10T15:12:12.388Z,0.20
2023-04-10T15:14:43.775Z,0.10
2023-04-10T15:17:13.520Z,0.20
2023-04-10T15:19:41.930Z,0.10
2023-04-10T15:22:10.366Z,0.10
2023-04-10T15:24:49.837Z,0.10
2023-04-10T15:27:20.985Z,0.10
2023-04-10T15:29:49.057Z,0.10
2023-04-10T15:32:18.605Z,0.20
2023-04-10T15:34:46.791Z,0.10
2023-04-10T15:37:14.816Z,0.10
2023-04-10T15:39:42.793Z,0.20
2023-04-10T15:42:10.912Z,0.10
2023-04-10T15:44:39.236Z,0.20
2023-04-10T15:47:07.293Z,0.20
2023-04-10T15:49:38.736Z,0.20
2023-04-10T15:52:07.764Z,0.13
2023-04-10T15:54:35.935Z,0.20
2023-04-10T15:57:04.576Z,0.20
2023-04-10T15:59:33.893Z,0.20
2023-04-10T16:02:02.269Z,0.20
2023-04-10T16:04:31.340Z,0.10
2023-04-10T16:07:00.829Z,0.20
2023-04-10T16:09:28.867Z,0.17
2023-04-10T16:11:57.807Z,0.20
2023-04-10T16:14:26.035Z,0.20
2023-04-10T16:16:54.548Z,0.20
2023-04-10T16:19:23.015Z,0.20
2023-04-10T16:21:51.265Z,0.20
2023-04-10T16:24:20.802Z,0.20
2023-04-10T16:26:48.930Z,0.20
2023-04-10T16:29:19.739Z,0.10
2023-04-10T16:31:48.108Z,0.20
2023-04-10T16:34:16.309Z,0.20
2023-04-10T16:36:44.409Z,0.20
2023-04-10T16:39:12.608Z,0.20
2023-04-10T16:41:42.013Z,0.20
2023-04-10T16:44:10.190Z,0.20
2023-04-10T16:46:38.343Z,0.20
2023-04-10T16:49:06.467Z,0.20
2023-04-10T16:51:34.539Z,0.20
2023-04-10T16:54:03.672Z,0.20
2023-04-10T16:56:32.695Z,0.20
2023-04-10T16:59:02.085Z,0.20
2023-04-10T17:01:30.878Z,0.20
2023-04-10T17:03:59.128Z,0.20
2023-04-10T17:06:27.375Z,0.20
2023-04-10T17:08:55.555Z,0.20
2023-04-10T17:11:24.114Z,0.20
2023-04-10T17:13:52.202Z,0.20
2023-04-10T17:16:21.953Z,0.20
2023-04-10T17:18:49.984Z,0.20
2023-04-10T17:21:17.910Z,0.23
2023-04-10T17:23:46.061Z,0.20
2023-04-10T17:26:15.248Z,0.10
2023-04-10T17:28:46.223Z,0.20
2023-04-10T17:31:14.510Z,0.17
2023-04-10T17:33:44.485Z,0.20
2023-04-10T17:36:13.717Z,0.20
2023-04-10T17:38:42.460Z,0.20
2023-04-10T17:41:11.175Z,0.20
2023-04-10T17:43:40.209Z,0.20
2023-04-10T17:46:08.645Z,0.20
2023-04-10T17:48:39.021Z,0.20
2023-04-10T17:51:09.208Z,0.20
2023-04-10T17:53:37.582Z,0.20
2023-04-10T17:56:06.192Z,0.20
2023-04-10T17:58:34.334Z,0.20
2023-04-10T18:01:02.503Z,0.20
2023-04-10T18:03:30.672Z,0.20
2023-04-10T18:05:59.002Z,0.20
2023-04-10T18:08:28.442Z,0.20
2023-04-10T18:10:56.573Z,0.20
2023-04-10T18:13:24.578Z,0.20
2023-04-10T18:15:54.611Z,0.20
2023-04-10T18:18:22.733Z,0.20
2023-04-10T18:20:50.756Z,0.20
2023-04-10T18:23:18.870Z,0.20
2023-04-10T18:25:54.970Z,0.20
2023-04-10T18:28:23.380Z,0.17
2023-04-10T18:30:53.850Z,0.20
2023-04-10T18:33:24.124Z,0.20
2023-04-10T18:35:52.719Z,0.20
2023-04-10T18:38:21.261Z,0.20
2023-04-10T18:40:49.293Z,0.20
2023-04-10T18:43:18.697Z,0.20
2023-04-10T18:45:46.869Z,0.20
2023-04-10T18:48:15.781Z,0.20
2023-04-10T18:50:44.129Z,0.30
2023-04-10T18:53:12.092Z,0.20
2023-04-10T18:55:40.245Z,0.20
2023-04-10T18:58:08.427Z,0.20
2023-04-10T19:00:38.188Z,0.20
2023-04-10T19:03:06.459Z,0.20
2023-04-10T19:05:34.742Z,0.20
2023-04-10T19:08:04.654Z,0.20
2023-04-10T19:10:33.768Z,0.20
2023-04-10T19:13:01.806Z,0.20
2023-04-10T19:15:30.323Z,0.17
2023-04-10T19:17:59.764Z,0.30
2023-04-10T19:20:52.698Z,0.20
2023-04-10T19:23:17.770Z,0.20
2023-04-10T19:25:45.893Z,0.17
2023-04-10T19:28:14.206Z,0.20
2023-04-10T19:30:42.401Z,0.20
2023-04-10T19:33:11.760Z,0.20
2023-04-10T19:35:39.807Z,0.20
2023-04-10T19:38:07.906Z,0.20
2023-04-10T19:40:37.428Z,0.20
2023-04-10T19:43:05.749Z,0.20
2023-04-10T19:45:38.174Z,0.20
2023-04-10T19:48:07.146Z,0.30
2023-04-10T19:50:36.755Z,0.20
2023-04-10T19:53:05.960Z,0.20
2023-04-10T19:55:34.326Z,0.30
2023-04-10T19:58:02.434Z,0.30
2023-04-10T20:00:30.697Z,0.30
2023-04-10T20:02:58.950Z,0.30
2023-04-10T20:05:27.370Z,0.30
2023-04-10T20:07:57.154Z,0.30
2023-04-10T20:10:25.374Z,0.40
2023-04-10T20:12:53.353Z,0.20
2023-04-10T20:15:21.670Z,0.30
2023-04-10T20:17:49.674Z,0.40
2023-04-10T20:20:17.825Z,0.30
2023-04-10T20:22:45.823Z,0.40
2023-04-10T20:25:15.471Z,0.40
2023-04-10T20:27:43.422Z,0.30
2023-04-10T20:30:11.958Z,0.30
2023-04-10T20:32:40.258Z,0.30
2023-04-10T20:35:09.373Z,0.33
2023-04-10T20:37:37.474Z,0.30
2023-04-10T20:40:06.455Z,0.30
2023-04-10T20:42:36.151Z,0.30
2023-04-10T20:45:05.116Z,0.30
2023-04-10T20:47:33.253Z,0.30
2023-04-10T20:50:01.401Z,0.30
2023-04-10T20:52:29.485Z,0.30
2023-04-10T20:54:57.614Z,0.30
2023-04-10T20:57:26.840Z,0.30
2023-04-10T20:59:56.460Z,0.30
2023-04-10T21:02:24.711Z,0.27
2023-04-10T21:04:53.277Z,0.30
2023-04-10T21:07:21.291Z,0.30
2023-04-10T21:09:49.447Z,0.37
2023-04-10T21:12:17.506Z,0.33
2023-04-10T21:14:45.827Z,0.40
2023-04-10T21:17:16.659Z,0.30
2023-04-10T21:19:44.805Z,0.20
2023-04-10T21:22:13.222Z,0.40
2023-04-10T21:24:41.313Z,0.20
2023-04-10T21:27:09.369Z,0.40
2023-04-10T21:29:37.396Z,0.40
2023-04-10T21:32:05.522Z,0.40
2023-04-10T21:34:35.059Z,0.30
2023-04-10T21:37:03.192Z,0.40
2023-04-10T21:39:31.391Z,0.40
2023-04-10T21:41:59.559Z,0.30
2023-04-10T21:44:27.682Z,0.30
2023-04-10T21:46:55.737Z,0.30
2023-04-10T21:49:23.824Z,0.30
2023-04-10T21:51:53.251Z,0.30
2023-04-10T21:54:21.270Z,0.30
2023-04-10T21:56:49.294Z,0.33
2023-04-10T21:59:17.302Z,0.30
2023-04-10T22:01:45.599Z,0.40
2023-04-10T22:04:13.888Z,0.30
2023-04-10T22:06:42.068Z,0.30
2023-04-10T22:09:11.513Z,0.30
2023-04-10T22:11:40.002Z,0.30
2023-04-10T22:14:17.029Z,0.30
2023-04-10T22:16:45.548Z,0.30
2023-04-10T22:19:13.710Z,0.20
2023-04-10T22:21:41.788Z,0.30
2023-04-10T22:24:11.334Z,0.40
2023-04-10T22:26:42.041Z,0.30
2023-04-10T22:29:10.234Z,0.40
2023-04-10T22:31:38.314Z,0.20
2023-04-10T22:34:06.372Z,0.30
2023-04-10T22:36:34.508Z,0.20
2023-04-10T22:39:03.059Z,0.30
2023-04-10T22:41:32.932Z,0.30
2023-04-10T22:44:01.241Z,0.30
2023-04-10T22:46:29.460Z,0.30
2023-04-10T22:48:57.867Z,0.40
2023-04-10T22:51:26.752Z,0.40
2023-04-10T22:53:55.182Z,0.30
2023-04-10T22:56:26.476Z,0.30
2023-04-10T22:58:56.668Z,0.30
2023-04-10T23:01:25.017Z,0.37
2023-04-10T23:03:53.881Z,0.30
2023-04-10T23:06:22.151Z,0.30
2023-04-10T23:08:50.188Z,0.30
2023-04-10T23:11:18.321Z,0.40
2023-04-10T23:13:46.570Z,0.33
2023-04-10T23:16:16.180Z,0.20
2023-04-10T23:18:44.232Z,0.40
2023-04-10T23:21:12.273Z,0.50
2023-04-10T23:23:40.225Z,0.20
2023-04-10T23:26:08.641Z,0.20
2023-04-10T23:28:36.809Z,0.40
2023-04-10T23:31:05.014Z,0.40
2023-04-10T23:33:34.406Z,0.30
2023-04-10T23:36:02.620Z,0.37
2023-04-10T23:38:33.811Z,0.33
2023-04-10T23:41:02.923Z,0.30
2023-04-10T23:43:30.969Z,0.30
2023-04-10T23:45:59.079Z,0.30
2023-04-10T23:48:27.160Z,0.30
2023-04-10T23:51:05.767Z,0.30
2023-04-10T23:53:34.135Z,0.40
2023-04-10T23:56:02.832Z,0.30
2023-04-10T23:58:30.943Z,0.23
